Main page
METAR-TAF:

METAR-TAF

Airports :

Jammu Airport

Jammu, India

latitude: 32-41-21N, longitude: 74-50-15E, elevation: 314 m

METAR: missing

Time: 08:02 (02:32 UTC)

Forecast

The report was made 17 hours and 2 minutes ago, at 09:30 UTC
Forecast valid from 10 at 18 UTC to 11 at 12 UTC
Wind 2 kt from variable directions
Visibility: 3000 m
Scattered clouds at a height of 2000 ft
Scattered clouds at a height of 9000 ft
Broken clouds at a height of 20000 ft
mist
Temporary
from 11 at 02 UTC to 11 at 05 UTC
Wind 5 kt from the East
Visibility: 2000 m
Scattered clouds at a height of 2000 ft
Scattered clouds at a height of 9000 ft
mist
Becoming
from 11 at 06 UTC to 11 at 08 UTC
Visibility: 4000 m
Scattered clouds at a height of 2000 ft
Broken clouds at a height of 9000 ft
haze

TAF: VIJU 100930Z 1018/1112 VRB02KT 3000 BR SCT020 SCT090 BKN200 TEMPO 1102/1105 10005KT 2000 BR SCT020 SCT090 BECMG 1106/1108 4000 HZ SCT020 BKN090

Weather observations and forecasts of more than 4000 airports (METAR and TAF reports).

The available stations are represented by yellow and red dots on the map.

Hover mouse over dot to see the name of the station.

Then click to see weather observations and forecasts.

To change the map : click on the green buttons with a black cross to zoom in, on the green button with a dash to zoom out, or on the green arrows for adjacent maps.


METAR-TAF: